Coral Princess — ZCDF4 — position and weather

sailwx.info

Track history (hours):
 
Tides and Currents Weather Stations Pressure Air Temp Water Temp Dewpoint Dewpoint Depression Visibility Wind Speed Wind Dir Waves Ship Positions

Coral Princess

Operator: Princess Cruises

Last reported at 2018-Jul-21 11:00 UTC. Time now 2018-Jul-22 03:20 UTC.
Position N 57°12' W 133°54'.

Type: Passenger vessel. MMSI: 310376000.

Wind from 270 at 20 knots

Barometer 1022.6 mb
Air temperature 13.0 ° C
Visibility: greater than 10.8 NM
Dewpoint 11.1 ° C
Water temperature 11.0 ° C

Date/timePositionNaut miles runAvg speedWind from/ knotsBaromVisibWave heightAir tempDewpointWater temp
2018-Jul-21 11:00N 57°12' W 133°54'5012.4 270 / 201022.610.8 13.011.111.0
2018-Jul-21 07:00N 56°24' W 134°18'112 9.4 270 / 151021.510.8 13.011.112.0
2018-Jul-20 19:00N 55°18' W 131°36'25 3.1 300 / 151022.510.8 16.512.913.0
2018-Jul-20 10:54N 54°58' W 131°08'2412.6
2018-Jul-20 08:59N 54°35' W 131°18'613.2
2018-Jul-20 08:30N 54°29' W 131°14'715.0
2018-Jul-20 08:01N 54°22' W 131°08'714.3
2018-Jul-20 07:30N 54°16' W 131°03'713.8
2018-Jul-20 07:00N 54°09' W 131°01'10601.1
2018-Jul-20 07:00N 54°00' W 130°54'3 6.9 280 / 351021.710.8 13.011.112.0
2018-Jul-20 06:31N 54°02' W 130°59'714.1
2018-Jul-20 06:00N 53°55' W 130°57'713.6
2018-Jul-20 05:30N 53°48' W 130°55'713.3
2018-Jul-20 05:00N 53°42' W 130°53'812.5
2018-Jul-20 04:23N 53°34' W 130°51'612.9
2018-Jul-20 03:53N 53°28' W 130°48'8414.3
2018-Jul-19 22:00N 52°12' W 129°48'3115.6 360 / 151024.010.8 14.8 9.415.0
2018-Jul-19 19:59N 51°43' W 129°30'714.8
2018-Jul-19 19:31N 51°39' W 129°20'815.1
2018-Jul-19 19:00N 51°35' W 129°09'11896.0
2018-Jul-19 19:00N 51°30' W 128°54'3 6.8 360 / 101023.410.8 13.5 9.615.0
2018-Jul-19 18:30N 51°31' W 128°59'816.1
2018-Jul-19 18:01N 51°27' W 128°48'815.5
2018-Jul-19 17:31N 51°23' W 128°37'714.7
2018-Jul-19 17:01N 51°19' W 128°28'714.4
2018-Jul-19 16:30N 51°14' W 128°19'814.9
2018-Jul-19 16:00N 51°10' W 128°09'714.9
2018-Jul-19 15:31N 51°06' W 127°59'815.2
2018-Jul-19 15:00N 51°01' W 127°49'1211.8
2018-Jul-19 14:01N 50°53' W 127°36'612.4
2018-Jul-19 13:30N 50°50' W 127°28'612.7
2018-Jul-19 13:00N 50°47' W 127°18'612.5
2018-Jul-19 12:30N 50°45' W 127°09'612.8
2018-Jul-19 12:00N 50°43' W 126°60'612.6
2018-Jul-19 11:30N 50°40' W 126°51'612.8
2018-Jul-19 11:00N 50°36' W 126°43'611.6
2018-Jul-19 10:30N 50°31' W 126°38'612.7
2018-Jul-19 10:00N 50°30' W 126°28'612.6
2018-Jul-19 09:30N 50°29' W 126°18'3113.5
2018-Jul-19 07:12N 50°21' W 125°31'312.4
2018-Jul-19 06:57N 50°20' W 125°26'511.9
2018-Jul-19 06:30N 50°15' W 125°23'612.9
2018-Jul-19 06:00N 50°09' W 125°21'611.3
2018-Jul-19 05:30N 50°05' W 125°16'612.4
2018-Jul-19 05:01N 49°59' W 125°12'816.0
2018-Jul-19 04:31N 49°54' W 125°03'917.8
2018-Jul-19 04:01N 49°47' W 124°53'1020.0
2018-Jul-19 03:30N 49°40' W 124°42'1020.3
2018-Jul-19 03:00N 49°32' W 124°32'1620.1
2018-Jul-19 02:13N 49°24' W 124°11'420.2
2018-Jul-19 02:00N 49°24' W 124°05'9594.3
2018-Jul-19 02:00N 49°18' W 123°54'611.1 130 / 61019.410.8 18.515.118.0
2018-Jul-19 01:30N 49°22' W 123°48'1120.9
2018-Jul-19 00:58N 49°21' W 123°32'919.3
2018-Jul-19 00:31N 49°20' W 123°18'714.1
2018-Jul-19 00:00N 49°19' W 123°08'1 2.6
2018-Jul-18 23:28N 49°17' W 123°06'0 0.0
2018-Jul-18 22:58N 49°17' W 123°06'0 0.0
2018-Jul-18 22:28N 49°17' W 123°06'0 0.0
2018-Jul-18 21:58N 49°17' W 123°06'0 0.0
2018-Jul-18 21:28N 49°17' W 123°06'0 0.0
2018-Jul-18 20:58N 49°17' W 123°06'0 0.0
2018-Jul-18 20:28N 49°17' W 123°06'0 0.0
2018-Jul-18 19:58N 49°17' W 123°06'0 0.0
2018-Jul-18 19:28N 49°17' W 123°06'0 0.0
2018-Jul-18 18:58N 49°17' W 123°06'0 0.0
2018-Jul-18 17:55N 49°17' W 123°06'0 0.0
2018-Jul-18 17:19N 49°17' W 123°06'0 0.0
2018-Jul-18 16:01N 49°17' W 123°06'0 0.0
2018-Jul-18 15:49N 49°17' W 123°06'0 0.0
2018-Jul-18 15:28N 49°17' W 123°06'0 0.0
2018-Jul-18 14:49N 49°17' W 123°06'0 0.0
2018-Jul-18 14:28N 49°17' W 123°06'0 0.3
2018-Jul-18 13:30N 49°18' W 123°06'4 7.7
2018-Jul-18 13:00N 49°19' W 123°12'610.3
2018-Jul-18 12:27N 49°19' W 123°21'510.3
2018-Jul-18 11:58N 49°19' W 123°28'1810.9
2018-Jul-18 10:19N 49°21' W 123°56'412.2
2018-Jul-18 09:59N 49°22' W 124°02'814.9
2018-Jul-18 09:27N 49°25' W 124°13'612.6
2018-Jul-18 08:59N 49°27' W 124°22'612.0
2018-Jul-18 08:30N 49°29' W 124°30'612.3
2018-Jul-18 08:00N 49°34' W 124°36'612.4
2018-Jul-18 07:30N 49°39' W 124°42'612.2
2018-Jul-18 07:00N 49°43' W 124°48'4724.4
2018-Jul-18 07:00N 49°42' W 124°54'510.9 350 / 151017.010.8 18.014.615.0
2018-Jul-18 06:30N 49°47' W 124°55'612.0
2018-Jul-18 06:00N 49°52' W 125°01'611.8
2018-Jul-18 05:30N 49°56' W 125°08'611.8
2018-Jul-18 05:00N 50°01' W 125°13'713.2
2018-Jul-18 04:30N 50°06' W 125°18'612.2
2018-Jul-18 04:00N 50°12' W 125°22'814.7
2018-Jul-18 03:29N 50°19' W 125°25'1414.2
2018-Jul-18 02:30N 50°22' W 125°47'3914.7
2018-Jul-17 23:53N 50°36' W 126°43'717.6
2018-Jul-17 23:30N 50°40' W 126°51'816.9
2018-Jul-17 23:01N 50°44' W 127°03'816.9
2018-Jul-17 22:31N 50°47' W 127°16'816.5
2018-Jul-17 22:00N 50°50' W 127°28'816.4
2018-Jul-17 21:30N 50°54' W 127°39'814.9
2018-Jul-17 21:00N 50°59' W 127°48'611.6
2018-Jul-17 20:30N 51°03' W 127°55'713.6
2018-Jul-17 20:00N 51°07' W 128°03'714.6
2018-Jul-17 19:30N 51°11' W 128°13'815.4
2018-Jul-17 19:00N 51°16' W 128°22'815.3
2018-Jul-17 18:30N 51°21' W 128°32'815.9
2018-Jul-17 18:00N 51°25' W 128°43'816.2
2018-Jul-17 17:30N 51°29' W 128°54'816.1
2018-Jul-17 17:00N 51°33' W 129°05'816.1
2018-Jul-17 16:30N 51°38' W 129°16'816.3
2018-Jul-17 16:00N 51°42' W 129°27'816.8
2018-Jul-17 15:30N 51°49' W 129°35'816.7
2018-Jul-17 15:00N 51°57' W 129°40'917.1
2018-Jul-17 14:30N 52°04' W 129°46'918.4
2018-Jul-17 14:00N 52°13' W 129°52'917.9
2018-Jul-17 13:30N 52°21' W 129°58'1018.1
2018-Jul-17 12:58N 52°30' W 130°05'817.7
2018-Jul-17 12:30N 52°37' W 130°11'4117.4
2018-Jul-17 10:10N 53°14' W 130°38'517.0
2018-Jul-17 09:51N 53°19' W 130°42'617.3
2018-Jul-17 09:30N 53°25' W 130°46'917.2
2018-Jul-17 09:00N 53°33' W 130°50'917.2
2018-Jul-17 08:30N 53°41' W 130°52'917.6
2018-Jul-17 08:00N 53°50' W 130°55'918.0
2018-Jul-17 07:30N 53°59' W 130°58'918.2
2018-Jul-17 07:00N 54°08' W 131°01'917.5
2018-Jul-17 06:30N 54°17' W 131°04'817.0
2018-Jul-17 06:00N 54°24' W 131°10'816.5
2018-Jul-17 05:30N 54°32' W 131°16'816.0
2018-Jul-17 05:00N 54°40' W 131°16'917.7
2018-Jul-17 04:30N 54°48' W 131°11'124 7.1
2018-Jul-16 11:00N 56°18' W 133°42'24 6.0 180 / 181017.710.8 11.010.0 8.0
2018-Jul-16 07:00N 56°24' W 134°24'146 6.1 180 / 301017.210.8 11.010.0 9.0
2018-Jul-15 07:00N 58°48' W 135°12'3 0.2 180 / 301020.410.8 13.0 9.114.0
2018-Jul-14 11:00N 58°48' W 135°06'36 9.0 170 / 181024.610.8 13.5 9.613.0
2018-Jul-14 07:00N 58°12' W 135°00'8 9.3 170 / 151026.210.8 13.5 9.613.0
2018-Jul-14 06:05N 58°09' W 135°15'110.5
2018-Jul-14 05:58N 58°10' W 135°17'510.7
2018-Jul-14 05:29N 58°12' W 135°26'510.5
2018-Jul-14 05:01N 58°15' W 135°34'510.7
2018-Jul-14 04:30N 58°17' W 135°43'510.7
2018-Jul-14 04:00N 58°19' W 135°52'612.0
2018-Jul-14 03:30N 58°24' W 135°58'510.6
2018-Jul-14 03:00N 58°29' W 136°03'713.6
2018-Jul-14 02:30N 58°36' W 136°03'510.3
2018-Jul-14 02:00N 58°41' W 136°06'510.1
2018-Jul-14 01:30N 58°44' W 136°13'611.8
2018-Jul-14 01:00N 58°47' W 136°23'611.9
2018-Jul-14 00:29N 58°50' W 136°33'5 1.1
2018-Jul-13 19:42N 58°53' W 136°42'314.9
2018-Jul-13 19:30N 58°52' W 136°37'815.0
2018-Jul-13 19:00N 58°48' W 136°24'1139.0 1027.810.8 11.0 9.011.0
2018-Jul-13 18:59N 58°47' W 136°24'815.9
2018-Jul-13 18:30N 58°42' W 136°13'815.8
2018-Jul-13 18:01N 58°36' W 136°04'815.9
2018-Jul-13 17:31N 58°28' W 136°02'510.4
2018-Jul-13 17:00N 58°23' W 135°59'611.8
2018-Jul-13 16:30N 58°19' W 136°08'6311.3
2018-Jul-13 11:00N 58°30' W 138°06'4812.0 340 / 151026.310.8 12.8 9.913.0
2018-Jul-13 07:00N 59°00' W 139°18'   310 / 101026.110.8 13.0 9.114.0
Track history (hours):
 
Tides and Currents Weather Stations Pressure Air Temp Water Temp Dewpoint Dewpoint Depression Visibility Wind Speed Wind Dir Waves Ship Positions

Coral Princess

Operator: Princess Cruises

Last reported at 2018-Jul-21 11:00 UTC. Time now 2018-Jul-22 03:20 UTC.
Position N 57°12' W 133°54'.

Type: Passenger vessel. MMSI: 310376000.

Wind from 270 at 20 knots

Barometer 1022.6 mb
Air temperature 13.0 ° C
Visibility: greater than 10.8 NM
Dewpoint 11.1 ° C
Water temperature 11.0 ° C

Date/timePositionNaut miles runAvg speedWind from/ knotsBaromVisibWave heightAir tempDewpointWater temp
2018-Jul-21 11:00N 57°12' W 133°54'5012.4 270 / 201022.610.8 13.011.111.0
2018-Jul-21 07:00N 56°24' W 134°18'112 9.4 270 / 151021.510.8 13.011.112.0
2018-Jul-20 19:00N 55°18' W 131°36'25 3.1 300 / 151022.510.8 16.512.913.0
2018-Jul-20 10:54N 54°58' W 131°08'2412.6
2018-Jul-20 08:59N 54°35' W 131°18'613.2
2018-Jul-20 08:30N 54°29' W 131°14'715.0
2018-Jul-20 08:01N 54°22' W 131°08'714.3
2018-Jul-20 07:30N 54°16' W 131°03'713.8
2018-Jul-20 07:00N 54°09' W 131°01'10601.1
2018-Jul-20 07:00N 54°00' W 130°54'3 6.9 280 / 351021.710.8 13.011.112.0
2018-Jul-20 06:31N 54°02' W 130°59'714.1
2018-Jul-20 06:00N 53°55' W 130°57'713.6
2018-Jul-20 05:30N 53°48' W 130°55'713.3
2018-Jul-20 05:00N 53°42' W 130°53'812.5
2018-Jul-20 04:23N 53°34' W 130°51'612.9
2018-Jul-20 03:53N 53°28' W 130°48'8414.3
2018-Jul-19 22:00N 52°12' W 129°48'3115.6 360 / 151024.010.8 14.8 9.415.0
2018-Jul-19 19:59N 51°43' W 129°30'714.8
2018-Jul-19 19:31N 51°39' W 129°20'815.1
2018-Jul-19 19:00N 51°35' W 129°09'11896.0
2018-Jul-19 19:00N 51°30' W 128°54'3 6.8 360 / 101023.410.8 13.5 9.615.0
2018-Jul-19 18:30N 51°31' W 128°59'816.1
2018-Jul-19 18:01N 51°27' W 128°48'815.5
2018-Jul-19 17:31N 51°23' W 128°37'714.7
2018-Jul-19 17:01N 51°19' W 128°28'714.4
2018-Jul-19 16:30N 51°14' W 128°19'814.9
2018-Jul-19 16:00N 51°10' W 128°09'714.9
2018-Jul-19 15:31N 51°06' W 127°59'815.2
2018-Jul-19 15:00N 51°01' W 127°49'1211.8
2018-Jul-19 14:01N 50°53' W 127°36'612.4
2018-Jul-19 13:30N 50°50' W 127°28'612.7
2018-Jul-19 13:00N 50°47' W 127°18'612.5
2018-Jul-19 12:30N 50°45' W 127°09'612.8
2018-Jul-19 12:00N 50°43' W 126°60'612.6
2018-Jul-19 11:30N 50°40' W 126°51'612.8
2018-Jul-19 11:00N 50°36' W 126°43'611.6
2018-Jul-19 10:30N 50°31' W 126°38'612.7
2018-Jul-19 10:00N 50°30' W 126°28'612.6
2018-Jul-19 09:30N 50°29' W 126°18'3113.5
2018-Jul-19 07:12N 50°21' W 125°31'312.4
2018-Jul-19 06:57N 50°20' W 125°26'511.9
2018-Jul-19 06:30N 50°15' W 125°23'612.9
2018-Jul-19 06:00N 50°09' W 125°21'611.3
2018-Jul-19 05:30N 50°05' W 125°16'612.4
2018-Jul-19 05:01N 49°59' W 125°12'816.0
2018-Jul-19 04:31N 49°54' W 125°03'917.8
2018-Jul-19 04:01N 49°47' W 124°53'1020.0
2018-Jul-19 03:30N 49°40' W 124°42'1020.3
2018-Jul-19 03:00N 49°32' W 124°32'1620.1
2018-Jul-19 02:13N 49°24' W 124°11'420.2
2018-Jul-19 02:00N 49°24' W 124°05'9594.3
2018-Jul-19 02:00N 49°18' W 123°54'611.1 130 / 61019.410.8 18.515.118.0
2018-Jul-19 01:30N 49°22' W 123°48'1120.9
2018-Jul-19 00:58N 49°21' W 123°32'919.3
2018-Jul-19 00:31N 49°20' W 123°18'714.1
2018-Jul-19 00:00N 49°19' W 123°08'1 2.6
2018-Jul-18 23:28N 49°17' W 123°06'0 0.0
2018-Jul-18 22:58N 49°17' W 123°06'0 0.0
2018-Jul-18 22:28N 49°17' W 123°06'0 0.0
2018-Jul-18 21:58N 49°17' W 123°06'0 0.0
2018-Jul-18 21:28N 49°17' W 123°06'0 0.0
2018-Jul-18 20:58N 49°17' W 123°06'0 0.0
2018-Jul-18 20:28N 49°17' W 123°06'0 0.0
2018-Jul-18 19:58N 49°17' W 123°06'0 0.0
2018-Jul-18 19:28N 49°17' W 123°06'0 0.0
2018-Jul-18 18:58N 49°17' W 123°06'0 0.0
2018-Jul-18 17:55N 49°17' W 123°06'0 0.0
2018-Jul-18 17:19N 49°17' W 123°06'0 0.0
2018-Jul-18 16:01N 49°17' W 123°06'0 0.0
2018-Jul-18 15:49N 49°17' W 123°06'0 0.0
2018-Jul-18 15:28N 49°17' W 123°06'0 0.0
2018-Jul-18 14:49N 49°17' W 123°06'0 0.0
2018-Jul-18 14:28N 49°17' W 123°06'0 0.3
2018-Jul-18 13:30N 49°18' W 123°06'4 7.7
2018-Jul-18 13:00N 49°19' W 123°12'610.3
2018-Jul-18 12:27N 49°19' W 123°21'510.3
2018-Jul-18 11:58N 49°19' W 123°28'1810.9
2018-Jul-18 10:19N 49°21' W 123°56'412.2
2018-Jul-18 09:59N 49°22' W 124°02'814.9
2018-Jul-18 09:27N 49°25' W 124°13'612.6
2018-Jul-18 08:59N 49°27' W 124°22'612.0
2018-Jul-18 08:30N 49°29' W 124°30'612.3
2018-Jul-18 08:00N 49°34' W 124°36'612.4
2018-Jul-18 07:30N 49°39' W 124°42'612.2
2018-Jul-18 07:00N 49°43' W 124°48'4724.4
2018-Jul-18 07:00N 49°42' W 124°54'510.9 350 / 151017.010.8 18.014.615.0
2018-Jul-18 06:30N 49°47' W 124°55'612.0
2018-Jul-18 06:00N 49°52' W 125°01'611.8
2018-Jul-18 05:30N 49°56' W 125°08'611.8
2018-Jul-18 05:00N 50°01' W 125°13'713.2
2018-Jul-18 04:30N 50°06' W 125°18'612.2
2018-Jul-18 04:00N 50°12' W 125°22'814.7
2018-Jul-18 03:29N 50°19' W 125°25'1414.2
2018-Jul-18 02:30N 50°22' W 125°47'3914.7
2018-Jul-17 23:53N 50°36' W 126°43'717.6
2018-Jul-17 23:30N 50°40' W 126°51'816.9
2018-Jul-17 23:01N 50°44' W 127°03'816.9
2018-Jul-17 22:31N 50°47' W 127°16'816.5
2018-Jul-17 22:00N 50°50' W 127°28'816.4
2018-Jul-17 21:30N 50°54' W 127°39'814.9
2018-Jul-17 21:00N 50°59' W 127°48'611.6
2018-Jul-17 20:30N 51°03' W 127°55'713.6
2018-Jul-17 20:00N 51°07' W 128°03'714.6
2018-Jul-17 19:30N 51°11' W 128°13'815.4
2018-Jul-17 19:00N 51°16' W 128°22'815.3
2018-Jul-17 18:30N 51°21' W 128°32'815.9
2018-Jul-17 18:00N 51°25' W 128°43'816.2
2018-Jul-17 17:30N 51°29' W 128°54'816.1
2018-Jul-17 17:00N 51°33' W 129°05'816.1
2018-Jul-17 16:30N 51°38' W 129°16'816.3
2018-Jul-17 16:00N 51°42' W 129°27'816.8
2018-Jul-17 15:30N 51°49' W 129°35'816.7
2018-Jul-17 15:00N 51°57' W 129°40'917.1
2018-Jul-17 14:30N 52°04' W 129°46'918.4
2018-Jul-17 14:00N 52°13' W 129°52'917.9
2018-Jul-17 13:30N 52°21' W 129°58'1018.1
2018-Jul-17 12:58N 52°30' W 130°05'817.7
2018-Jul-17 12:30N 52°37' W 130°11'4117.4
2018-Jul-17 10:10N 53°14' W 130°38'517.0
2018-Jul-17 09:51N 53°19' W 130°42'617.3
2018-Jul-17 09:30N 53°25' W 130°46'917.2
2018-Jul-17 09:00N 53°33' W 130°50'917.2
2018-Jul-17 08:30N 53°41' W 130°52'917.6
2018-Jul-17 08:00N 53°50' W 130°55'918.0
2018-Jul-17 07:30N 53°59' W 130°58'918.2
2018-Jul-17 07:00N 54°08' W 131°01'917.5
2018-Jul-17 06:30N 54°17' W 131°04'817.0
2018-Jul-17 06:00N 54°24' W 131°10'816.5
2018-Jul-17 05:30N 54°32' W 131°16'816.0
2018-Jul-17 05:00N 54°40' W 131°16'917.7
2018-Jul-17 04:30N 54°48' W 131°11'124 7.1
2018-Jul-16 11:00N 56°18' W 133°42'24 6.0 180 / 181017.710.8 11.010.0 8.0
2018-Jul-16 07:00N 56°24' W 134°24'146 6.1 180 / 301017.210.8 11.010.0 9.0
2018-Jul-15 07:00N 58°48' W 135°12'3 0.2 180 / 301020.410.8 13.0 9.114.0
2018-Jul-14 11:00N 58°48' W 135°06'36 9.0 170 / 181024.610.8 13.5 9.613.0
2018-Jul-14 07:00N 58°12' W 135°00'8 9.3 170 / 151026.210.8 13.5 9.613.0
2018-Jul-14 06:05N 58°09' W 135°15'110.5
2018-Jul-14 05:58N 58°10' W 135°17'510.7
2018-Jul-14 05:29N 58°12' W 135°26'510.5
2018-Jul-14 05:01N 58°15' W 135°34'510.7
2018-Jul-14 04:30N 58°17' W 135°43'510.7
2018-Jul-14 04:00N 58°19' W 135°52'612.0
2018-Jul-14 03:30N 58°24' W 135°58'510.6
2018-Jul-14 03:00N 58°29' W 136°03'713.6
2018-Jul-14 02:30N 58°36' W 136°03'510.3
2018-Jul-14 02:00N 58°41' W 136°06'510.1
2018-Jul-14 01:30N 58°44' W 136°13'611.8
2018-Jul-14 01:00N 58°47' W 136°23'611.9
2018-Jul-14 00:29N 58°50' W 136°33'5 1.1
2018-Jul-13 19:42N 58°53' W 136°42'314.9
2018-Jul-13 19:30N 58°52' W 136°37'815.0
2018-Jul-13 19:00N 58°48' W 136°24'1139.0 1027.810.8 11.0 9.011.0
2018-Jul-13 18:59N 58°47' W 136°24'815.9
2018-Jul-13 18:30N 58°42' W 136°13'815.8
2018-Jul-13 18:01N 58°36' W 136°04'815.9
2018-Jul-13 17:31N 58°28' W 136°02'510.4
2018-Jul-13 17:00N 58°23' W 135°59'611.8
2018-Jul-13 16:30N 58°19' W 136°08'6311.3
2018-Jul-13 11:00N 58°30' W 138°06'4812.0 340 / 151026.310.8 12.8 9.913.0
2018-Jul-13 07:00N 59°00' W 139°18'   310 / 101026.110.8 13.0 9.114.0

Dump ship's entire track history